Time;durP1;ratioP1;P1;durP2;ratioP2;P2;SDS_P1;SDS_P2;PMS_P1;PMS_P2;Temp;Humidity;BMP_temperature;BMP_pressure;BME280_temperature;BME280_humidity;BME280_pressure;Samples;Min_cycle;Max_cycle;Signal;HPM_P1;HPM_P2
2022/06/03 00:00:20;;;;;;;;;13.00;13.00;;;;;24.85;49.83;100846.09;146604;563;46016;-74
2022/06/03 00:03:43;;;;;;;;;17.00;14.75;;;;;24.79;49.86;100849.66;146607;591;46010;-79
2022/06/03 00:07:07;;;;;;;;;16.50;13.00;;;;;24.77;50.14;100846.16;146599;724;46016;-71
2022/06/03 00:10:31;;;;;;;;;12.75;11.50;;;;;24.73;49.72;100852.34;146608;573;46010;-75
2022/06/03 00:14:05;;;;;;;;;14.00;12.25;;;;;23.75;49.32;100669.94;146603;602;46017;-74
2022/06/03 00:17:35;;;;;;;;;15.50;14.25;;;;;24.09;49.77;100728.06;146606;574;46020;-84
2022/06/03 00:21:02;;;;;;;;;15.25;13.75;;;;;24.75;49.37;100849.72;146602;575;46017;-78
2022/06/03 00:24:43;;;;;;;;;16.00;16.00;;;;;23.77;49.40;100678.75;146607;571;46010;-75
2022/06/03 00:28:04;;;;;;;;;13.50;12.00;;;;;24.83;49.67;100847.91;146605;564;47012;-78
2022/06/03 00:31:38;;;;;;;;;16.25;15.25;;;;;24.81;49.65;100860.28;146608;569;46010;-79
2022/06/03 00:35:00;;;;;;;;;15.25;13.00;;;;;24.82;49.41;100859.38;146604;571;46918;-82
2022/06/03 00:38:15;;;;;;;;;14.50;12.00;;;;;24.80;50.03;100863.84;146601;580;46916;-75
2022/06/03 00:41:36;;;;;;;;;15.50;13.50;;;;;24.74;49.90;100861.22;146603;567;46016;-78
2022/06/03 00:45:19;;;;;;;;;14.00;14.00;;;;;24.62;50.49;100868.31;146607;564;46020;-76
2022/06/03 00:48:53;;;;;;;;;14.75;13.00;;;;;22.51;50.85;100530.81;146603;644;46016;-84
2022/06/03 00:52:32;;;;;;;;;15.50;14.75;;;;;24.33;50.17;100871.06;146606;565;46010;-73
2022/06/03 00:56:04;;;;;;;;;16.75;16.75;;;;;23.22;50.73;100687.66;146602;605;47012;-71
2022/06/03 00:59:38;;;;;;;;;13.25;13.25;;;;;23.15;51.25;100677.97;146606;597;46021;-70
2022/06/03 01:03:16;;;;;;;;;16.00;15.00;;;;;23.14;50.62;100686.78;146602;646;46039;-73
2022/06/03 01:07:05;;;;;;;;;15.00;13.75;;;;;24.08;51.39;100862.28;146607;581;46023;-74
2022/06/03 01:10:33;;;;;;;;;16.50;15.00;;;;;23.98;52.08;100858.75;146603;616;46918;-72
2022/06/03 01:13:55;;;;;;;;;16.00;14.00;;;;;23.93;51.50;100860.53;146607;625;46010;-72
2022/06/03 01:17:15;;;;;;;;;15.00;12.75;;;;;23.94;52.04;100864.94;146603;568;46920;-72
2022/06/03 01:20:34;;;;;;;;;15.75;14.75;;;;;22.92;51.42;100682.34;146607;622;46011;-72
2022/06/03 01:24:10;;;;;;;;;15.00;13.75;;;;;23.93;51.99;100855.25;146605;605;46016;-71
2022/06/03 01:27:34;;;;;;;;;15.50;15.50;;;;;23.93;52.28;100849.94;146605;581;47010;-71
2022/06/03 01:30:46;;;;;;;;;16.25;13.50;;;;;23.94;52.81;100858.75;146603;647;46920;-77
2022/06/03 01:34:15;;;;;;;;;16.00;14.25;;;;;23.95;51.48;100842.84;146608;620;46010;-73
2022/06/03 01:37:37;;;;;;;;;16.25;14.75;;;;;23.99;52.04;100841.13;146604;624;47012;-73
2022/06/03 01:41:03;;;;;;;;;15.00;12.25;;;;;22.82;51.27;100647.09;146607;611;45916;-80
2022/06/03 01:44:51;;;;;;;;;16.25;14.75;;;;;22.84;52.18;100653.28;146603;592;46016;-80
2022/06/03 01:48:19;;;;;;;;;13.50;13.50;;;;;23.90;51.51;100834.06;146606;657;47010;-80
2022/06/03 01:52:06;;;;;;;;;15.00;15.00;;;;;23.93;51.43;100834.06;146603;569;46016;-79
2022/06/03 01:55:54;;;;;;;;;13.50;13.50;;;;;22.91;50.89;100649.75;146608;591;45021;-79
2022/06/03 01:59:18;;;;;;;;;16.25;13.50;;;;;24.04;51.23;100836.66;146606;574;47920;-76
2022/06/03 02:03:01;;;;;;;;;14.00;12.00;;;;;23.05;51.57;100670.91;146606;580;46021;-76
2022/06/03 02:06:39;;;;;;;;;17.00;14.75;;;;;23.01;51.07;100662.09;146601;594;46017;-75
2022/06/03 02:10:18;;;;;;;;;14.50;13.75;;;;;23.97;51.99;100829.63;146607;594;46010;-74
2022/06/03 02:14:00;;;;;;;;;14.75;13.00;;;;;22.78;52.62;100648.88;146601;695;47921;-71
2022/06/03 02:17:34;;;;;;;;;12.50;12.00;;;;;22.64;52.10;100647.97;146605;570;47010;-71
2022/06/03 02:21:22;;;;;;;;;12.50;11.75;;;;;23.67;52.01;100831.38;146603;614;47012;-72
2022/06/03 02:24:59;;;;;;;;;11.50;11.50;;;;;23.58;52.57;100833.16;146606;718;46020;-82
2022/06/03 02:28:37;;;;;;;;;16.25;14.50;;;;;22.37;52.62;100639.16;146605;572;47012;-71
2022/06/03 02:32:16;;;;;;;;;13.25;13.25;;;;;23.50;52.83;100846.41;146606;625;46010;-76
2022/06/03 02:35:52;;;;;;;;;16.00;13.50;;;;;23.44;53.38;100842.00;146604;618;46016;-76
2022/06/03 02:39:30;;;;;;;;;21.25;17.00;;;;;22.25;53.04;100654.97;146607;568;46010;-76
2022/06/03 02:43:00;;;;;;;;;15.25;14.00;;;;;23.39;53.37;100861.38;146602;659;47012;-73
2022/06/03 02:46:46;;;;;;;;;14.50;14.50;;;;;22.31;52.55;100667.31;146608;599;46020;-71
2022/06/03 02:50:25;;;;;;;;;14.00;14.00;;;;;22.34;52.46;100662.03;146605;585;46921;-72
2022/06/03 02:53:58;;;;;;;;;18.25;15.50;;;;;23.55;52.32;100849.94;146606;702;46010;-71
2022/06/03 02:57:36;;;;;;;;;16.25;14.25;;;;;22.58;52.91;100679.69;146603;581;47012;-71
2022/06/03 03:01:09;;;;;;;;;16.00;14.00;;;;;22.52;51.68;100677.03;146607;581;46010;-71
2022/06/03 03:04:43;;;;;;;;;14.50;13.50;;;;;22.60;53.20;100693.78;146605;599;46921;-78
2022/06/03 03:08:22;;;;;;;;;17.25;16.25;;;;;23.56;52.90;100875.53;146606;624;46020;-73
2022/06/03 03:12:11;;;;;;;;;12.25;10.25;;;;;22.34;52.90;100683.19;146626;637;45017;-74
2022/06/03 03:15:37;;;;;;;;;17.00;14.00;;;;;23.41;52.81;100892.28;146626;598;45020;-74
2022/06/03 03:18:47;;;;;;;;;15.50;14.75;;;;;23.40;53.27;100892.28;146625;585;45016;-73
2022/06/03 03:22:16;;;;;;;;;13.25;12.00;;;;;23.43;53.01;100889.62;146628;604;45012;-72
2022/06/03 03:25:56;;;;;;;;;13.00;12.00;;;;;23.49;52.15;100893.16;146622;576;45918;-73
2022/06/03 03:29:11;;;;;;;;;13.00;11.75;;;;;23.55;53.43;100896.69;146625;580;45020;-73
2022/06/03 03:32:54;;;;;;;;;15.00;14.00;;;;;22.49;52.40;100709.62;146624;566;45920;-72
2022/06/03 03:36:29;;;;;;;;;14.25;13.50;;;;;23.64;52.17;100894.03;146627;583;45012;-72
2022/06/03 03:40:22;;;;;;;;;14.00;13.25;;;;;22.69;52.06;100712.31;146624;594;45014;-77
2022/06/03 03:43:58;;;;;;;;;15.25;13.50;;;;;22.77;52.45;100725.50;146626;646;45010;-76
2022/06/03 03:47:50;;;;;;;;;18.00;15.25;;;;;22.73;52.47;100715.81;146626;637;46920;-81
2022/06/03 03:51:28;;;;;;;;;14.00;12.50;;;;;23.85;52.12;100903.78;146628;563;45030;-74
2022/06/03 03:55:00;;;;;;;;;16.50;14.00;;;;;23.89;52.37;100909.06;146628;636;45016;-76
2022/06/03 03:58:35;;;;;;;;;14.25;13.75;;;;;23.91;52.40;100914.38;146631;690;45010;-78
2022/06/03 04:02:21;;;;;;;;;15.25;13.75;;;;;22.78;52.52;100727.31;146626;587;45017;-74
2022/06/03 04:06:03;;;;;;;;;14.25;14.25;;;;;22.93;52.57;100760.78;146627;598;45020;-75
2022/06/03 04:09:31;;;;;;;;;17.50;15.25;;;;;23.94;52.62;100922.34;146619;589;46013;-74
2022/06/03 04:13:14;;;;;;;;;15.00;14.50;;;;;22.95;51.62;100746.72;146608;640;47010;-75
2022/06/03 04:16:52;;;;;;;;;17.75;16.00;;;;;24.12;52.90;100927.63;146603;592;46920;-74
2022/06/03 04:20:33;;;;;;;;;13.50;13.50;;;;;23.09;51.88;100746.75;146608;741;47010;-75
2022/06/03 04:24:11;;;;;;;;;17.00;15.00;;;;;24.20;52.10;100946.13;146604;601;46920;-75
2022/06/03 04:28:12;;;;;;;;;14.75;14.00;;;;;23.12;51.95;100761.75;146606;600;47012;-79
2022/06/03 04:31:43;;;;;;;;;13.75;13.75;;;;;24.22;52.50;100951.44;146604;570;46017;-81
2022/06/03 04:35:30;;;;;;;;;18.25;15.25;;;;;24.26;52.52;100959.37;146608;580;46020;-83
2022/06/03 04:39:07;;;;;;;;;15.00;14.50;;;;;23.45;52.29;100834.94;146604;656;46918;-73
2022/06/03 04:43:02;;;;;;;;;16.00;14.00;;;;;23.26;51.77;100791.72;146602;582;48020;-73
2022/06/03 04:46:44;;;;;;;;;14.25;13.25;;;;;24.44;51.54;100985.00;146604;564;45920;-73
2022/06/03 04:50:22;;;;;;;;;14.00;13.00;;;;;23.79;51.58;100858.78;146604;570;46020;-73
2022/06/03 04:54:05;;;;;;;;;14.75;13.00;;;;;23.61;52.30;100815.50;146605;571;46012;-73
2022/06/03 04:57:35;;;;;;;;;14.00;12.50;;;;;23.90;50.96;100823.47;146609;652;46010;-74
2022/06/03 05:01:21;;;;;;;;;14.75;13.00;;;;;24.20;50.15;100843.72;146604;589;47013;-75
2022/06/03 05:04:54;;;;;;;;;15.00;13.00;;;;;25.36;49.48;100998.00;146606;664;46010;-70
2022/06/03 05:08:43;;;;;;;;;17.50;16.00;;;;;24.40;49.59;100821.56;146602;613;46017;-75
2022/06/03 05:12:29;;;;;;;;;13.75;13.25;;;;;25.67;49.81;101012.00;146629;656;46010;-75
2022/06/03 05:16:12;;;;;;;;;17.75;16.50;;;;;25.96;49.38;101010.94;146627;658;46918;-75
2022/06/03 05:19:35;;;;;;;;;14.00;13.00;;;;;25.39;49.19;100849.34;146628;563;45010;-75
2022/06/03 05:23:06;;;;;;;;;15.50;14.25;;;;;26.69;48.38;101007.63;146628;570;45015;-76
2022/06/03 05:26:38;;;;;;;;;17.25;14.50;;;;;27.03;48.34;101011.69;146628;606;45010;-76
2022/06/03 05:30:10;;;;;;;;;14.25;14.25;;;;;27.38;48.01;101021.91;146627;587;46918;-76
2022/06/03 05:33:52;;;;;;;;;12.50;12.50;;;;;27.65;46.72;101012.66;146629;561;45915;-77
2022/06/03 05:37:03;;;;;;;;;13.25;13.25;;;;;27.85;46.75;101020.37;146627;563;45920;-76
2022/06/03 05:40:30;;;;;;;;;16.50;13.75;;;;;28.04;46.43;101019.19;146630;578;46010;-77
2022/06/03 05:44:15;;;;;;;;;15.75;14.25;;;;;28.33;46.47;101016.03;146629;635;45012;-77
2022/06/03 05:47:13;;;;;;;;;14.50;13.25;;;;;28.60;45.50;101027.16;146625;589;46010;-75
2022/06/03 05:50:52;;;;;;;;;16.25;12.50;;;;;27.78;45.80;100851.72;146626;583;45016;-78
2022/06/03 05:54:19;;;;;;;;;12.75;12.50;;;;;28.89;44.45;101017.72;146623;569;46011;-75
2022/06/03 05:57:30;;;;;;;;;16.00;14.50;;;;;28.86;45.66;101023.13;146623;620;45920;-76
2022/06/03 06:00:55;;;;;;;;;17.25;14.00;;;;;28.91;45.00;101029.22;146631;577;45030;-75
2022/06/03 06:04:14;;;;;;;;;15.75;14.00;;;;;29.06;45.24;101020.06;146628;574;45920;-76
2022/06/03 06:07:31;;;;;;;;;17.50;14.50;;;;;29.26;45.65;101017.88;146629;609;45020;-76
2022/06/03 06:11:13;;;;;;;;;12.50;12.50;;;;;29.44;44.50;101021.94;146625;600;45920;-76
2022/06/03 06:14:49;;;;;;;;;13.00;13.00;;;;;29.60;44.75;101018.00;146628;569;47013;-75
2022/06/03 06:18:32;;;;;;;;;11.50;11.25;;;;;28.96;44.69;100867.19;146627;628;46919;-76
2022/06/03 06:22:20;;;;;;;;;14.50;14.50;;;;;29.28;43.91;100871.81;146629;684;46010;-77
2022/06/03 06:25:22;;;;;;;;;13.25;11.50;;;;;30.33;42.50;101025.19;146626;694;45920;-76
2022/06/03 06:28:47;;;;;;;;;11.75;10.50;;;;;28.75;43.18;100733.34;146630;557;45029;-76
2022/06/03 06:32:10;;;;;;;;;13.00;13.00;;;;;30.61;42.31;101022.69;146627;649;45917;-77
2022/06/03 06:35:42;;;;;;;;;10.75;9.50;;;;;29.86;42.01;100872.19;146628;605;45020;-77
2022/06/03 06:39:13;;;;;;;;;12.75;11.00;;;;;29.91;42.17;100857.78;146627;615;45916;-76
2022/06/03 06:42:38;;;;;;;;;10.25;9.00;;;;;30.12;41.98;100872.34;146631;680;45010;-75
2022/06/03 06:46:03;;;;;;;;;14.00;12.00;;;;;31.13;41.66;101026.59;146627;620;45916;-77
2022/06/03 06:49:28;;;;;;;;;13.00;13.00;;;;;31.24;41.77;101027.16;146629;703;45020;-76
2022/06/03 06:53:00;;;;;;;;;12.00;11.75;;;;;31.33;41.14;101025.12;146625;570;45017;-77
2022/06/03 06:56:18;;;;;;;;;13.75;13.00;;;;;31.28;40.85;101027.97;146626;613;45020;-77
2022/06/03 06:59:27;;;;;;;;;13.75;13.00;;;;;31.18;41.26;101026.44;146627;570;45017;-76
2022/06/03 07:02:54;;;;;;;;;12.50;11.00;;;;;30.37;41.13;100863.69;146631;576;45010;-77
2022/06/03 07:06:11;;;;;;;;;12.50;12.00;;;;;31.41;41.10;101018.66;146628;584;45017;-76
2022/06/03 07:09:35;;;;;;;;;12.50;12.50;;;;;31.55;39.80;101018.22;146618;676;46010;-78
2022/06/03 07:12:45;;;;;;;;;12.50;12.50;;;;;31.63;39.17;101018.88;146606;580;45918;-76
2022/06/03 07:19:47;;;;;;;;;14.00;13.00;;;;;30.92;40.73;100877.28;146608;633;45021;-77
2022/06/03 07:20:06;;;;;;;;;13.25;11.75;;;;;31.89;40.09;101017.19;146603;571;46016;-77
2022/06/03 07:23:35;;;;;;;;;11.25;11.00;;;;;31.99;39.41;101018.62;146606;725;46010;-76
2022/06/03 07:26:52;;;;;;;;;12.00;12.00;;;;;31.85;40.63;101013.69;146606;618;45918;-77
2022/06/03 07:29:59;;;;;;;;;21.25;21.25;;;;;31.85;40.57;101016.37;146606;716;46011;-77
2022/06/03 07:33:21;;;;;;;;;10.25;9.00;;;;;31.13;40.72;100860.53;146606;565;46016;-78
2022/06/03 07:36:43;;;;;;;;;11.50;11.50;;;;;32.17;39.07;101009.09;146605;634;46010;-77
2022/06/03 07:40:07;;;;;;;;;11.25;11.25;;;;;32.28;39.16;101012.28;146605;667;46016;-77
2022/06/03 07:43:35;;;;;;;;;11.00;10.25;;;;;32.38;39.74;101018.22;146608;675;46030;-79
2022/06/03 07:46:34;;;;;;;;;10.75;10.25;;;;;32.49;37.90;101017.84;146604;664;46016;-77
2022/06/03 07:49:28;;;;;;;;;11.00;10.25;;;;;32.50;37.91;101012.44;146608;689;46010;-75
2022/06/03 07:52:47;;;;;;;;;10.75;10.25;;;;;32.37;37.27;101011.97;146605;590;46012;-82
2022/06/03 07:55:39;;;;;;;;;10.25;10.25;;;;;32.34;37.47;101025.50;146607;563;46020;-83
2022/06/03 07:58:38;;;;;;;;;10.00;9.00;;;;;32.45;38.61;101013.53;146603;620;46016;-75
2022/06/03 08:01:38;;;;;;;;;10.25;10.25;;;;;32.60;38.46;101015.69;146607;650;46020;-81
2022/06/03 08:04:33;;;;;;;;;8.25;8.25;;;;;32.81;36.71;101008.66;146603;661;46016;-80
2022/06/03 08:11:00;;;;;;;;;10.75;9.00;;;;;32.73;38.08;101008.94;146627;647;45016;-78
2022/06/03 08:13:56;;;;;;;;;9.00;9.00;;;;;32.67;37.82;101007.34;146630;564;45010;-78
2022/06/03 08:16:49;;;;;;;;;12.50;10.75;;;;;32.72;37.36;101000.94;146627;572;45034;-78
2022/06/03 08:19:42;;;;;;;;;13.25;11.00;;;;;32.82;36.62;100995.16;146630;569;45010;-77
2022/06/03 08:22:35;;;;;;;;;12.00;10.00;;;;;32.88;36.29;100997.62;146628;619;45030;-78
2022/06/03 08:25:34;;;;;;;;;9.25;8.25;;;;;32.92;36.94;100998.38;146626;573;45020;-78
2022/06/03 08:28:31;;;;;;;;;9.75;9.50;;;;;33.11;37.22;101006.66;146625;683;46014;-77
2022/06/03 08:31:27;;;;;;;;;10.25;9.75;;;;;33.37;37.18;101008.34;146628;570;45020;-78
2022/06/03 08:34:43;;;;;;;;;9.75;8.00;;;;;33.69;38.25;101007.09;146625;637;45920;-79
2022/06/03 08:38:25;;;;;;;;;9.25;8.75;;;;;33.84;36.88;101015.50;146626;577;46010;-76
2022/06/03 08:41:37;;;;;;;;;10.25;10.25;;;;;33.76;37.87;101013.97;146628;618;45016;-79
2022/06/03 08:45:09;;;;;;;;;8.75;8.75;;;;;33.91;36.96;101019.66;146623;572;45021;-76
2022/06/03 08:48:04;;;;;;;;;7.75;7.75;;;;;34.09;32.99;101020.75;146629;705;45016;-76
2022/06/03 08:51:08;;;;;;;;;9.25;7.75;;;;;34.21;34.42;101022.94;146626;687;45021;-76
2022/06/03 08:54:49;;;;;;;;;9.00;8.00;;;;;33.48;33.92;100886.94;146627;565;45014;-75
2022/06/03 08:57:49;;;;;;;;;7.50;7.50;;;;;34.31;34.73;101023.41;146629;592;46010;-78
2022/06/03 09:01:05;;;;;;;;;8.50;8.25;;;;;34.35;33.85;101017.81;146627;650;45016;-76
2022/06/03 09:04:13;;;;;;;;;9.00;8.50;;;;;34.42;32.73;101024.69;146629;572;45010;-78
2022/06/03 09:07:27;;;;;;;;;10.00;8.50;;;;;34.54;34.91;101017.91;146626;634;46921;-76
2022/06/03 09:10:47;;;;;;;;;6.50;6.50;;;;;34.75;35.36;101009.84;146604;660;47010;-79
2022/06/03 09:14:03;;;;;;;;;7.75;7.50;;;;;34.92;32.73;101016.22;146601;662;46017;-78
2022/06/03 09:17:07;;;;;;;;;6.25;6.25;;;;;35.09;30.33;101019.97;146607;565;47010;-79
2022/06/03 09:20:03;;;;;;;;;7.50;7.50;;;;;35.14;32.84;101012.53;146604;665;46014;-77
2022/06/03 09:23:05;;;;;;;;;10.25;9.00;;;;;35.16;32.51;101016.91;146607;671;46020;-78
2022/06/03 09:26:01;;;;;;;;;8.50;7.25;;;;;35.15;31.78;101014.31;146604;566;46016;-78
2022/06/03 09:28:54;;;;;;;;;8.50;8.50;;;;;35.21;31.62;101013.16;146606;685;46021;-78
2022/06/03 09:31:52;;;;;;;;;6.50;6.00;;;;;35.32;32.43;101011.66;146604;605;47014;-77
2022/06/03 09:34:51;;;;;;;;;7.50;6.25;;;;;35.46;32.60;101007.47;146605;741;46021;-78
2022/06/03 09:37:50;;;;;;;;;3.75;2.75;;;;;35.58;32.74;101005.06;146603;576;46016;-77
2022/06/03 09:40:48;;;;;;;;;9.00;8.25;;;;;35.63;32.24;100996.75;146606;663;46010;-77
2022/06/03 09:43:45;;;;;;;;;6.25;5.25;;;;;35.69;32.05;101003.66;146603;699;46016;-78
2022/06/03 09:46:39;;;;;;;;;6.50;6.00;;;;;35.67;29.19;100998.34;146609;698;46010;-78
2022/06/03 09:49:34;;;;;;;;;6.50;6.50;;;;;35.52;30.30;100997.25;146604;622;46017;-77
2022/06/03 09:52:29;;;;;;;;;8.50;6.50;;;;;35.35;30.67;100989.97;146609;680;45031;-77
2022/06/03 09:55:32;;;;;;;;;10.00;7.50;;;;;35.40;32.89;100992.44;146606;702;46016;-78
2022/06/03 09:58:29;;;;;;;;;7.25;6.25;;;;;35.55;29.34;100993.56;146607;632;47010;-75
2022/06/03 10:01:21;;;;;;;;;7.00;6.00;;;;;35.61;29.19;100998.66;146603;731;46016;-77
2022/06/03 10:04:13;;;;;;;;;4.50;4.50;;;;;35.62;30.42;101005.81;146607;599;46020;-77
2022/06/03 10:07:05;;;;;;;;;8.00;6.50;;;;;35.66;30.37;101004.69;146606;595;46014;-76
2022/06/03 10:13:11;;;;;;;;;6.75;6.75;;;;;35.86;30.91;100995.63;146604;700;46017;-77
2022/06/03 10:16:07;;;;;;;;;10.00;7.25;;;;;35.96;30.03;100990.63;146607;577;46030;-78
2022/06/03 10:18:59;;;;;;;;;8.00;8.00;;;;;36.00;28.22;100994.91;146604;708;46012;-77
2022/06/03 10:21:58;;;;;;;;;7.25;7.25;;;;;35.99;30.51;100995.88;146607;583;46010;-77
2022/06/03 10:24:53;;;;;;;;;6.50;6.50;;;;;35.97;30.16;101000.47;146603;627;46016;-77
2022/06/03 10:27:48;;;;;;;;;6.00;6.00;;;;;35.98;29.65;100995.00;146607;629;46012;-76
2022/06/03 10:30:42;;;;;;;;;6.00;6.00;;;;;36.06;30.29;100989.25;146604;571;46016;-77
2022/06/03 10:33:36;;;;;;;;;9.25;8.50;;;;;36.15;28.81;100990.59;146607;652;46020;-76
2022/06/03 10:36:40;;;;;;;;;7.00;7.00;;;;;36.23;30.37;100994.66;146605;696;46016;-76
2022/06/03 10:39:33;;;;;;;;;9.00;6.00;;;;;36.32;28.82;100995.97;146606;664;46020;-77
2022/06/03 10:42:27;;;;;;;;;5.25;4.50;;;;;36.35;27.77;100998.53;146603;585;46016;-75
2022/06/03 10:45:20;;;;;;;;;6.50;5.25;;;;;36.35;28.03;100998.53;146607;628;46020;-75
2022/06/03 10:48:32;;;;;;;;;5.25;5.00;;;;;36.36;30.89;101004.78;146605;591;46920;-77
2022/06/03 11:01:09;;;;;;;;;6.00;6.00;;;;;36.36;27.70;100996.69;146605;570;46016;-76
2022/06/03 11:04:02;;;;;;;;;6.25;6.25;;;;;36.40;27.70;100992.91;146610;588;46010;-78
2022/06/03 11:06:54;;;;;;;;;4.00;4.00;;;;;36.47;27.32;100988.91;146605;587;46920;-75
2022/06/03 11:10:04;;;;;;;;;8.75;8.50;;;;;36.55;29.85;100981.31;146604;629;46020;-78
2022/06/03 11:13:05;;;;;;;;;4.75;4.75;;;;;36.58;29.46;100996.50;146605;606;46012;-77
2022/06/03 11:15:58;;;;;;;;;7.50;5.50;;;;;36.61;28.87;100989.09;146610;573;46010;-76
2022/06/03 11:18:51;;;;;;;;;7.00;6.75;;;;;36.62;29.00;100989.97;146602;567;47017;-79
2022/06/03 11:21:44;;;;;;;;;9.75;8.00;;;;;36.60;27.60;100983.75;146609;641;46010;-78
2022/06/03 11:24:36;;;;;;;;;9.00;8.00;;;;;36.60;28.36;100989.16;146604;586;46016;-76
2022/06/03 11:28:09;;;;;;;;;6.00;6.00;;;;;36.61;29.91;100990.94;146607;597;46031;-76
2022/06/03 11:31:18;;;;;;;;;5.25;5.25;;;;;36.53;30.05;100989.50;146605;614;46012;-78
2022/06/03 11:34:36;;;;;;;;;6.00;6.00;;;;;36.46;30.39;100984.47;146608;581;47010;-76
2022/06/03 11:37:34;;;;;;;;;5.25;5.25;;;;;36.41;26.00;100981.12;146608;569;46918;-77
2022/06/03 11:40:35;;;;;;;;;6.00;6.00;;;;;36.33;28.91;100980.66;146604;599;46021;-76
2022/06/03 11:43:43;;;;;;;;;6.00;5.00;;;;;36.32;29.17;100985.19;146606;569;46012;-75
2022/06/03 11:46:40;;;;;;;;;7.25;6.50;;;;;36.33;28.14;100986.94;146610;570;46010;-75
2022/06/03 11:49:33;;;;;;;;;6.25;4.50;;;;;36.36;27.57;100977.78;146604;648;47012;-77
2022/06/03 11:52:27;;;;;;;;;5.00;4.50;;;;;36.39;27.14;100975.81;146608;656;46020;-76
2022/06/03 11:55:19;;;;;;;;;6.25;5.25;;;;;36.43;27.31;100969.31;146604;619;46016;-76
2022/06/03 11:58:33;;;;;;;;;4.25;4.25;;;;;36.47;27.67;100984.38;146610;661;46010;-76
2022/06/03 12:01:40;;;;;;;;;5.00;5.00;;;;;36.46;28.08;100979.94;146604;629;46014;-75
2022/06/03 12:04:51;;;;;;;;;5.00;4.25;;;;;36.48;28.51;100986.16;146609;651;46010;-76
2022/06/03 12:08:16;;;;;;;;;6.00;6.00;;;;;36.55;29.92;100981.31;146605;614;46920;-75
2022/06/03 12:14:38;;;;;;;;;8.25;7.00;;;;;36.61;29.40;100985.53;146629;705;45916;-75
2022/06/03 12:17:34;;;;;;;;;7.00;7.00;;;;;36.54;27.24;100984.97;146628;570;45914;-75
2022/06/03 12:20:55;;;;;;;;;8.25;7.00;;;;;36.56;28.69;100980.34;146626;588;45016;-75
2022/06/03 12:23:58;;;;;;;;;5.25;5.25;;;;;36.57;29.11;100978.53;146628;667;45021;-76
2022/06/03 12:26:53;;;;;;;;;7.00;7.00;;;;;36.57;28.72;100974.00;146625;666;46012;-76
2022/06/03 12:30:02;;;;;;;;;5.75;5.00;;;;;36.57;27.90;100982.09;146627;580;46010;-76
2022/06/03 12:33:33;;;;;;;;;6.00;6.00;;;;;36.48;26.80;100971.75;146625;610;45918;-74
2022/06/03 12:37:11;;;;;;;;;0.25;0.00;;;;;36.41;30.02;100970.34;146632;563;45020;-74
2022/06/03 12:40:27;;;;;;;;;7.00;6.00;;;;;35.26;27.82;100787.34;146624;599;48918;-72
2022/06/03 12:43:46;;;;;;;;;5.50;5.50;;;;;36.35;27.55;100965.25;146627;568;46020;-71
2022/06/03 12:46:43;;;;;;;;;7.00;7.00;;;;;36.33;27.78;100961.75;146627;608;45016;-73
2022/06/03 12:50:29;;;;;;;;;7.25;5.75;;;;;36.37;29.01;100964.22;146628;608;45020;-70
2022/06/03 12:53:48;;;;;;;;;6.00;6.00;;;;;35.62;28.23;100825.94;146626;579;46916;-72
2022/06/03 12:57:06;;;;;;;;;8.00;7.00;;;;;36.51;29.08;100966.22;146623;570;46020;-72
2022/06/03 13:00:34;;;;;;;;;4.50;4.50;;;;;35.69;28.06;100821.09;146631;692;45012;-72
2022/06/03 13:03:47;;;;;;;;;5.75;5.75;;;;;35.71;28.57;100815.66;146634;586;45010;-72
2022/06/03 13:07:16;;;;;;;;;7.50;6.75;;;;;35.79;26.42;100813.41;146629;553;45012;-73
2022/06/03 13:10:26;;;;;;;;;5.50;5.50;;;;;36.65;28.53;100949.28;146609;570;46010;-73
2022/06/03 13:13:38;;;;;;;;;3.75;3.25;;;;;36.65;27.65;100952.84;146603;627;46014;-72
2022/06/03 13:16:56;;;;;;;;;8.25;7.25;;;;;35.76;28.74;100809.03;146605;694;46021;-72
2022/06/03 13:19:59;;;;;;;;;6.00;6.00;;;;;36.61;26.80;100955.81;146606;603;46012;-73
2022/06/03 13:22:57;;;;;;;;;6.75;6.25;;;;;36.61;25.93;100951.28;146608;652;46020;-73
2022/06/03 13:25:50;;;;;;;;;7.25;5.25;;;;;36.62;27.27;100953.00;146606;583;46921;-73
2022/06/03 13:28:43;;;;;;;;;5.25;5.25;;;;;36.63;26.59;100949.34;146607;591;47010;-73
2022/06/03 13:32:06;;;;;;;;;6.75;6.75;;;;;35.73;28.76;100797.53;146607;570;46013;-74
2022/06/03 13:35:27;;;;;;;;;6.25;5.00;;;;;36.56;27.36;100936.28;146607;596;46020;-74
2022/06/03 13:38:28;;;;;;;;;8.00;7.00;;;;;36.52;24.02;100946.38;146602;625;47014;-73
2022/06/03 13:45:28;;;;;;;;;8.00;7.00;;;;;36.35;29.21;100946.34;146603;569;46016;-72
2022/06/03 13:48:38;;;;;;;;;6.25;6.00;;;;;36.29;27.98;100936.75;146607;612;46010;-73
2022/06/03 13:51:55;;;;;;;;;9.50;6.75;;;;;36.25;26.42;100927.94;146608;626;46919;-72
2022/06/03 13:54:53;;;;;;;;;6.50;6.00;;;;;36.25;27.94;100927.06;146607;583;46011;-75
2022/06/03 13:57:53;;;;;;;;;7.50;7.25;;;;;36.24;27.99;100926.19;146603;592;46016;-76
2022/06/03 14:01:42;;;;;;;;;9.25;6.75;;;;;35.46;29.07;100797.13;146607;598;46021;-75
2022/06/03 14:04:36;;;;;;;;;6.25;6.25;;;;;36.24;27.56;100911.84;146605;575;46920;-75
2022/06/03 14:08:29;;;;;;;;;5.75;5.75;;;;;35.35;29.14;100776.09;146608;570;46021;-75
2022/06/03 14:11:51;;;;;;;;;9.00;6.00;;;;;36.25;28.47;100927.94;146628;627;45016;-74
2022/06/03 14:15:09;;;;;;;;;6.00;6.00;;;;;36.23;27.13;100918.16;146628;609;45013;-74
2022/06/03 14:18:03;;;;;;;;;8.25;8.25;;;;;36.16;27.01;100922.16;146627;578;45921;-74
2022/06/03 14:20:57;;;;;;;;;7.25;7.25;;;;;36.08;27.98;100923.44;146625;570;45020;-74
2022/06/03 14:23:53;;;;;;;;;7.25;7.25;;;;;36.05;26.87;100914.63;146624;584;45921;-76
2022/06/03 14:27:09;;;;;;;;;11.00;10.00;;;;;36.04;27.56;100912.88;146627;577;45020;-75
2022/06/03 14:30:18;;;;;;;;;8.00;7.00;;;;;36.03;28.27;100919.22;146627;610;45010;-72
2022/06/03 14:33:13;;;;;;;;;8.75;8.75;;;;;36.05;25.51;100914.63;146629;569;45021;-73
2022/06/03 14:36:06;;;;;;;;;6.75;5.75;;;;;35.89;25.15;100910.91;146628;581;45010;-72
2022/06/03 14:39:11;;;;;;;;;7.50;6.75;;;;;35.71;27.34;100916.31;146628;655;45020;-72
2022/06/03 14:42:12;;;;;;;;;8.50;7.50;;;;;35.57;28.05;100911.59;146627;636;45920;-76
2022/06/03 14:45:06;;;;;;;;;6.75;6.75;;;;;35.54;27.69;100918.97;146626;608;45020;-75
2022/06/03 14:48:03;;;;;;;;;8.25;6.50;;;;;35.47;27.76;100917.53;146628;666;45016;-81
2022/06/03 14:51:12;;;;;;;;;6.25;6.25;;;;;35.25;28.93;100915.88;146629;588;46010;-75
2022/06/03 14:54:22;;;;;;;;;7.75;7.75;;;;;34.94;25.90;100920.00;146627;603;45017;-76
2022/06/03 14:57:25;;;;;;;;;7.50;7.25;;;;;34.75;26.06;100926.34;146628;677;45020;-77
2022/06/03 15:00:58;;;;;;;;;6.50;6.50;;;;;34.60;28.06;100909.94;146626;570;45017;-74
2022/06/03 15:04:02;;;;;;;;;9.00;9.00;;;;;34.51;28.03;100914.84;146628;650;45010;-73
2022/06/03 15:07:34;;;;;;;;;6.50;6.50;;;;;34.48;29.82;100911.31;146629;576;46012;-73
2022/06/03 15:10:29;;;;;;;;;8.25;7.50;;;;;34.56;28.66;100897.56;146629;617;45010;-74
2022/06/03 15:13:30;;;;;;;;;7.50;7.50;;;;;34.61;28.38;100900.94;146627;623;45920;-73
2022/06/03 15:16:23;;;;;;;;;6.25;6.25;;;;;34.54;27.78;100899.44;146628;596;45011;-73
2022/06/03 15:19:15;;;;;;;;;6.50;6.00;;;;;34.34;27.95;100897.63;146625;644;45920;-75
2022/06/03 15:22:31;;;;;;;;;7.00;7.00;;;;;33.20;29.40;100739.41;146628;609;44916;-73
2022/06/03 15:25:52;;;;;;;;;5.25;5.25;;;;;34.05;31.38;100895.34;146625;641;45919;-73
2022/06/03 15:28:48;;;;;;;;;8.75;8.75;;;;;33.99;30.93;100901.87;146626;711;45020;-74
2022/06/03 15:31:41;;;;;;;;;5.50;5.50;;;;;33.79;29.33;100895.50;146629;624;45921;-73